sensor_id;sensor_type;location;lat;lon;timestamp;P1;durP1;ratioP1;P2;durP2;ratioP2
80400;SDS011;69727;53.132;8.230;2023-09-08T00:00:09;7.67;;;4.50;;
80400;SDS011;69727;53.132;8.230;2023-09-08T00:02:35;7.75;;;5.20;;
80400;SDS011;69727;53.132;8.230;2023-09-08T00:05:00;7.63;;;5.13;;
80400;SDS011;69727;53.132;8.230;2023-09-08T00:13:03;8.70;;;5.00;;
80400;SDS011;69727;53.132;8.230;2023-09-08T00:15:29;7.30;;;4.70;;
80400;SDS011;69727;53.132;8.230;2023-09-08T00:17:55;9.45;;;5.30;;
80400;SDS011;69727;53.132;8.230;2023-09-08T00:20:22;9.38;;;5.05;;
80400;SDS011;69727;53.132;8.230;2023-09-08T00:22:47;9.30;;;4.85;;
80400;SDS011;69727;53.132;8.230;2023-09-08T00:25:13;7.78;;;5.20;;
80400;SDS011;69727;53.132;8.230;2023-09-08T00:27:38;7.95;;;5.22;;
80400;SDS011;69727;53.132;8.230;2023-09-08T00:30:03;9.53;;;5.70;;
80400;SDS011;69727;53.132;8.230;2023-09-08T00:32:29;7.40;;;4.60;;
80400;SDS011;69727;53.132;8.230;2023-09-08T00:34:55;9.93;;;5.03;;
80400;SDS011;69727;53.132;8.230;2023-09-08T00:37:20;7.63;;;4.93;;
80400;SDS011;69727;53.132;8.230;2023-09-08T00:39:45;9.50;;;5.73;;
80400;SDS011;69727;53.132;8.230;2023-09-08T00:42:11;8.05;;;5.20;;
80400;SDS011;69727;53.132;8.230;2023-09-08T00:44:36;9.13;;;5.27;;
80400;SDS011;69727;53.132;8.230;2023-09-08T00:47:01;8.10;;;5.50;;
80400;SDS011;69727;53.132;8.230;2023-09-08T00:49:27;7.45;;;4.72;;
80400;SDS011;69727;53.132;8.230;2023-09-08T00:51:53;8.93;;;5.18;;
80400;SDS011;69727;53.132;8.230;2023-09-08T00:54:19;8.82;;;5.53;;
80400;SDS011;69727;53.132;8.230;2023-09-08T00:56:45;8.00;;;4.68;;
80400;SDS011;69727;53.132;8.230;2023-09-08T00:59:11;7.57;;;5.38;;
80400;SDS011;69727;53.132;8.230;2023-09-08T01:01:37;8.90;;;5.55;;
80400;SDS011;69727;53.132;8.230;2023-09-08T01:04:02;9.32;;;5.47;;
80400;SDS011;69727;53.132;8.230;2023-09-08T01:06:28;8.43;;;5.45;;
80400;SDS011;69727;53.132;8.230;2023-09-08T01:08:54;9.77;;;5.70;;
80400;SDS011;69727;53.132;8.230;2023-09-08T01:11:20;7.05;;;4.72;;
80400;SDS011;69727;53.132;8.230;2023-09-08T01:13:46;9.23;;;5.70;;
80400;SDS011;69727;53.132;8.230;2023-09-08T01:16:12;7.85;;;5.55;;
80400;SDS011;69727;53.132;8.230;2023-09-08T01:18:37;7.03;;;4.83;;
80400;SDS011;69727;53.132;8.230;2023-09-08T01:23:43;8.85;;;5.80;;
80400;SDS011;69727;53.132;8.230;2023-09-08T01:26:18;9.73;;;5.38;;
80400;SDS011;69727;53.132;8.230;2023-09-08T01:28:47;8.65;;;5.68;;
80400;SDS011;69727;53.132;8.230;2023-09-08T01:31:15;8.20;;;5.78;;
80400;SDS011;69727;53.132;8.230;2023-09-08T01:33:41;9.38;;;5.78;;
80400;SDS011;69727;53.132;8.230;2023-09-08T01:36:07;7.47;;;5.05;;
80400;SDS011;69727;53.132;8.230;2023-09-08T01:38:34;7.78;;;5.18;;
80400;SDS011;69727;53.132;8.230;2023-09-08T01:40:59;9.77;;;5.50;;
80400;SDS011;69727;53.132;8.230;2023-09-08T01:43:26;8.40;;;5.45;;
80400;SDS011;69727;53.132;8.230;2023-09-08T01:45:52;7.82;;;5.20;;
80400;SDS011;69727;53.132;8.230;2023-09-08T01:48:17;7.37;;;5.37;;
80400;SDS011;69727;53.132;8.230;2023-09-08T01:50:43;10.68;;;5.25;;
80400;SDS011;69727;53.132;8.230;2023-09-08T01:53:08;10.40;;;6.03;;
80400;SDS011;69727;53.132;8.230;2023-09-08T01:55:33;9.13;;;5.90;;
80400;SDS011;69727;53.132;8.230;2023-09-08T01:57:59;8.20;;;5.70;;
80400;SDS011;69727;53.132;8.230;2023-09-08T02:00:24;8.73;;;5.40;;
80400;SDS011;69727;53.132;8.230;2023-09-08T02:02:50;7.83;;;5.73;;
80400;SDS011;69727;53.132;8.230;2023-09-08T02:05:15;10.17;;;6.10;;
80400;SDS011;69727;53.132;8.230;2023-09-08T02:07:40;9.35;;;5.82;;
80400;SDS011;69727;53.132;8.230;2023-09-08T02:10:06;7.63;;;5.17;;
80400;SDS011;69727;53.132;8.230;2023-09-08T02:12:31;8.57;;;5.85;;
80400;SDS011;69727;53.132;8.230;2023-09-08T02:14:57;8.80;;;5.25;;
80400;SDS011;69727;53.132;8.230;2023-09-08T02:17:22;7.60;;;5.47;;
80400;SDS011;69727;53.132;8.230;2023-09-08T02:19:48;9.30;;;5.88;;
80400;SDS011;69727;53.132;8.230;2023-09-08T02:22:13;10.10;;;5.97;;
80400;SDS011;69727;53.132;8.230;2023-09-08T02:24:39;8.25;;;5.13;;
80400;SDS011;69727;53.132;8.230;2023-09-08T02:27:04;8.90;;;5.65;;
80400;SDS011;69727;53.132;8.230;2023-09-08T02:29:30;8.87;;;5.93;;
80400;SDS011;69727;53.132;8.230;2023-09-08T02:31:56;8.32;;;5.10;;
80400;SDS011;69727;53.132;8.230;2023-09-08T02:34:21;9.37;;;5.47;;
80400;SDS011;69727;53.132;8.230;2023-09-08T02:36:47;8.32;;;5.50;;
80400;SDS011;69727;53.132;8.230;2023-09-08T02:39:16;7.68;;;5.07;;
80400;SDS011;69727;53.132;8.230;2023-09-08T02:41:41;8.27;;;4.97;;
80400;SDS011;69727;53.132;8.230;2023-09-08T02:44:06;8.77;;;5.50;;
80400;SDS011;69727;53.132;8.230;2023-09-08T02:46:32;9.65;;;5.50;;
80400;SDS011;69727;53.132;8.230;2023-09-08T02:48:57;8.40;;;5.80;;
80400;SDS011;69727;53.132;8.230;2023-09-08T02:51:23;8.13;;;5.73;;
80400;SDS011;69727;53.132;8.230;2023-09-08T02:53:48;9.03;;;5.83;;
80400;SDS011;69727;53.132;8.230;2023-09-08T02:56:13;9.40;;;5.73;;
80400;SDS011;69727;53.132;8.230;2023-09-08T02:58:39;10.63;;;6.40;;
80400;SDS011;69727;53.132;8.230;2023-09-08T03:01:11;9.23;;;5.77;;
80400;SDS011;69727;53.132;8.230;2023-09-08T03:03:38;8.75;;;5.68;;
80400;SDS011;69727;53.132;8.230;2023-09-08T03:06:04;10.13;;;6.45;;
80400;SDS011;69727;53.132;8.230;2023-09-08T03:08:29;10.13;;;6.07;;
80400;SDS011;69727;53.132;8.230;2023-09-08T03:10:55;8.90;;;5.65;;
80400;SDS011;69727;53.132;8.230;2023-09-08T03:13:22;9.35;;;5.97;;
80400;SDS011;69727;53.132;8.230;2023-09-08T03:15:47;9.48;;;6.15;;
80400;SDS011;69727;53.132;8.230;2023-09-08T03:18:13;9.77;;;5.83;;
80400;SDS011;69727;53.132;8.230;2023-09-08T03:20:38;9.27;;;5.93;;
80400;SDS011;69727;53.132;8.230;2023-09-08T03:23:05;11.40;;;5.95;;
80400;SDS011;69727;53.132;8.230;2023-09-08T03:25:30;8.30;;;6.15;;
80400;SDS011;69727;53.132;8.230;2023-09-08T03:27:56;10.00;;;6.10;;
80400;SDS011;69727;53.132;8.230;2023-09-08T03:30:21;8.50;;;5.70;;
80400;SDS011;69727;53.132;8.230;2023-09-08T03:32:47;9.37;;;6.07;;
80400;SDS011;69727;53.132;8.230;2023-09-08T03:35:12;10.37;;;5.90;;
80400;SDS011;69727;53.132;8.230;2023-09-08T03:37:37;9.23;;;6.00;;
80400;SDS011;69727;53.132;8.230;2023-09-08T03:40:03;9.45;;;5.78;;
80400;SDS011;69727;53.132;8.230;2023-09-08T03:42:32;9.10;;;6.40;;
80400;SDS011;69727;53.132;8.230;2023-09-08T03:44:57;9.00;;;6.10;;
80400;SDS011;69727;53.132;8.230;2023-09-08T03:47:22;10.43;;;6.55;;
80400;SDS011;69727;53.132;8.230;2023-09-08T03:49:48;11.67;;;6.57;;
80400;SDS011;69727;53.132;8.230;2023-09-08T03:52:13;10.37;;;7.00;;
80400;SDS011;69727;53.132;8.230;2023-09-08T03:54:39;9.68;;;6.30;;
80400;SDS011;69727;53.132;8.230;2023-09-08T03:57:04;10.77;;;7.00;;
80400;SDS011;69727;53.132;8.230;2023-09-08T03:59:29;10.77;;;6.70;;
80400;SDS011;69727;53.132;8.230;2023-09-08T04:01:55;10.90;;;7.20;;
80400;SDS011;69727;53.132;8.230;2023-09-08T04:04:20;10.00;;;6.47;;
80400;SDS011;69727;53.132;8.230;2023-09-08T04:06:46;10.82;;;6.90;;
80400;SDS011;69727;53.132;8.230;2023-09-08T04:09:11;16.20;;;8.07;;
80400;SDS011;69727;53.132;8.230;2023-09-08T04:11:36;13.33;;;8.17;;
80400;SDS011;69727;53.132;8.230;2023-09-08T04:14:02;15.18;;;8.57;;
80400;SDS011;69727;53.132;8.230;2023-09-08T04:16:28;10.55;;;6.45;;
80400;SDS011;69727;53.132;8.230;2023-09-08T04:18:53;11.10;;;7.18;;
80400;SDS011;69727;53.132;8.230;2023-09-08T04:21:18;11.00;;;6.00;;
80400;SDS011;69727;53.132;8.230;2023-09-08T04:23:44;9.93;;;6.22;;
80400;SDS011;69727;53.132;8.230;2023-09-08T04:26:09;9.63;;;6.27;;
80400;SDS011;69727;53.132;8.230;2023-09-08T04:28:35;12.18;;;6.90;;
80400;SDS011;69727;53.132;8.230;2023-09-08T04:31:00;12.65;;;7.35;;
80400;SDS011;69727;53.132;8.230;2023-09-08T04:33:26;12.73;;;7.97;;
80400;SDS011;69727;53.132;8.230;2023-09-08T04:35:51;13.95;;;7.93;;
80400;SDS011;69727;53.132;8.230;2023-09-08T04:38:16;11.10;;;6.93;;
80400;SDS011;69727;53.132;8.230;2023-09-08T04:40:42;14.20;;;8.47;;
80400;SDS011;69727;53.132;8.230;2023-09-08T04:43:10;13.38;;;7.88;;
80400;SDS011;69727;53.132;8.230;2023-09-08T04:45:35;12.30;;;7.93;;
80400;SDS011;69727;53.132;8.230;2023-09-08T04:48:01;11.10;;;7.53;;
80400;SDS011;69727;53.132;8.230;2023-09-08T04:50:26;11.55;;;7.20;;
80400;SDS011;69727;53.132;8.230;2023-09-08T04:52:51;13.00;;;7.90;;
80400;SDS011;69727;53.132;8.230;2023-09-08T04:55:17;11.00;;;6.82;;
80400;SDS011;69727;53.132;8.230;2023-09-08T04:57:42;11.57;;;7.30;;
80400;SDS011;69727;53.132;8.230;2023-09-08T05:00:08;13.85;;;7.97;;
80400;SDS011;69727;53.132;8.230;2023-09-08T05:02:33;10.23;;;6.85;;
80400;SDS011;69727;53.132;8.230;2023-09-08T05:04:59;13.27;;;7.77;;
80400;SDS011;69727;53.132;8.230;2023-09-08T05:07:25;12.43;;;6.93;;
80400;SDS011;69727;53.132;8.230;2023-09-08T05:09:50;10.00;;;6.97;;
80400;SDS011;69727;53.132;8.230;2023-09-08T05:12:16;26.70;;;14.80;;
80400;SDS011;69727;53.132;8.230;2023-09-08T05:14:41;14.70;;;9.15;;
80400;SDS011;69727;53.132;8.230;2023-09-08T05:17:07;14.32;;;8.20;;
80400;SDS011;69727;53.132;8.230;2023-09-08T05:19:32;13.10;;;8.10;;
80400;SDS011;69727;53.132;8.230;2023-09-08T05:21:57;13.05;;;7.82;;
80400;SDS011;69727;53.132;8.230;2023-09-08T05:24:23;11.82;;;7.07;;
80400;SDS011;69727;53.132;8.230;2023-09-08T05:26:50;10.52;;;6.80;;
80400;SDS011;69727;53.132;8.230;2023-09-08T05:29:16;12.30;;;7.65;;
80400;SDS011;69727;53.132;8.230;2023-09-08T05:31:41;12.57;;;7.63;;
80400;SDS011;69727;53.132;8.230;2023-09-08T05:34:07;12.93;;;7.47;;
80400;SDS011;69727;53.132;8.230;2023-09-08T05:36:32;12.57;;;7.28;;
80400;SDS011;69727;53.132;8.230;2023-09-08T05:39:00;11.82;;;8.27;;
80400;SDS011;69727;53.132;8.230;2023-09-08T05:41:27;13.93;;;8.15;;
80400;SDS011;69727;53.132;8.230;2023-09-08T05:43:53;11.15;;;7.07;;
80400;SDS011;69727;53.132;8.230;2023-09-08T05:46:19;13.70;;;7.78;;
80400;SDS011;69727;53.132;8.230;2023-09-08T05:48:44;12.43;;;7.50;;
80400;SDS011;69727;53.132;8.230;2023-09-08T05:51:10;11.63;;;7.32;;
80400;SDS011;69727;53.132;8.230;2023-09-08T05:53:35;9.68;;;6.65;;
80400;SDS011;69727;53.132;8.230;2023-09-08T05:58:29;11.80;;;7.30;;
80400;SDS011;69727;53.132;8.230;2023-09-08T06:00:55;14.98;;;7.90;;
80400;SDS011;69727;53.132;8.230;2023-09-08T06:03:20;12.55;;;8.20;;
80400;SDS011;69727;53.132;8.230;2023-09-08T06:05:46;13.35;;;7.93;;
80400;SDS011;69727;53.132;8.230;2023-09-08T06:08:11;11.80;;;7.57;;
80400;SDS011;69727;53.132;8.230;2023-09-08T06:10:37;15.00;;;7.83;;
80400;SDS011;69727;53.132;8.230;2023-09-08T06:13:03;11.80;;;7.47;;
80400;SDS011;69727;53.132;8.230;2023-09-08T06:15:29;13.75;;;7.63;;
80400;SDS011;69727;53.132;8.230;2023-09-08T06:17:55;9.95;;;6.80;;
80400;SDS011;69727;53.132;8.230;2023-09-08T06:20:20;11.43;;;7.47;;
80400;SDS011;69727;53.132;8.230;2023-09-08T06:22:46;10.95;;;7.88;;
80400;SDS011;69727;53.132;8.230;2023-09-08T06:25:11;13.63;;;7.68;;
80400;SDS011;69727;53.132;8.230;2023-09-08T06:27:37;12.68;;;7.20;;
80400;SDS011;69727;53.132;8.230;2023-09-08T06:30:03;13.90;;;8.13;;
80400;SDS011;69727;53.132;8.230;2023-09-08T06:32:29;12.48;;;7.78;;
80400;SDS011;69727;53.132;8.230;2023-09-08T06:34:54;11.27;;;6.97;;
80400;SDS011;69727;53.132;8.230;2023-09-08T06:37:19;12.43;;;7.73;;
80400;SDS011;69727;53.132;8.230;2023-09-08T06:39:45;11.90;;;7.40;;
80400;SDS011;69727;53.132;8.230;2023-09-08T06:42:10;11.70;;;8.37;;
80400;SDS011;69727;53.132;8.230;2023-09-08T06:44:36;12.13;;;7.63;;
80400;SDS011;69727;53.132;8.230;2023-09-08T06:47:01;11.25;;;6.93;;
80400;SDS011;69727;53.132;8.230;2023-09-08T06:49:28;13.38;;;6.97;;
80400;SDS011;69727;53.132;8.230;2023-09-08T06:51:53;11.18;;;7.15;;
80400;SDS011;69727;53.132;8.230;2023-09-08T06:54:19;16.80;;;7.90;;
80400;SDS011;69727;53.132;8.230;2023-09-08T06:56:44;11.60;;;7.40;;
80400;SDS011;69727;53.132;8.230;2023-09-08T06:59:09;11.67;;;7.70;;
80400;SDS011;69727;53.132;8.230;2023-09-08T07:01:36;13.38;;;7.30;;
80400;SDS011;69727;53.132;8.230;2023-09-08T07:04:02;9.90;;;7.32;;
80400;SDS011;69727;53.132;8.230;2023-09-08T07:06:28;14.40;;;7.60;;
80400;SDS011;69727;53.132;8.230;2023-09-08T07:08:53;10.10;;;6.43;;
80400;SDS011;69727;53.132;8.230;2023-09-08T07:11:19;11.60;;;7.43;;
80400;SDS011;69727;53.132;8.230;2023-09-08T07:13:44;11.00;;;6.68;;
80400;SDS011;69727;53.132;8.230;2023-09-08T07:16:09;12.70;;;6.77;;
80400;SDS011;69727;53.132;8.230;2023-09-08T07:18:35;11.32;;;7.70;;
80400;SDS011;69727;53.132;8.230;2023-09-08T07:21:02;11.75;;;7.35;;
80400;SDS011;69727;53.132;8.230;2023-09-08T07:23:28;11.40;;;8.07;;
80400;SDS011;69727;53.132;8.230;2023-09-08T07:25:53;11.50;;;6.88;;
80400;SDS011;69727;53.132;8.230;2023-09-08T07:28:19;10.90;;;6.82;;
80400;SDS011;69727;53.132;8.230;2023-09-08T07:30:44;11.38;;;6.85;;
80400;SDS011;69727;53.132;8.230;2023-09-08T07:33:10;11.63;;;6.82;;
80400;SDS011;69727;53.132;8.230;2023-09-08T07:35:36;11.60;;;6.95;;
80400;SDS011;69727;53.132;8.230;2023-09-08T07:38:02;12.40;;;7.60;;
80400;SDS011;69727;53.132;8.230;2023-09-08T07:40:28;11.07;;;6.75;;
80400;SDS011;69727;53.132;8.230;2023-09-08T07:42:53;9.60;;;6.45;;
80400;SDS011;69727;53.132;8.230;2023-09-08T07:45:19;9.93;;;7.13;;
80400;SDS011;69727;53.132;8.230;2023-09-08T07:47:44;13.37;;;7.60;;
80400;SDS011;69727;53.132;8.230;2023-09-08T07:50:17;9.40;;;6.40;;
80400;SDS011;69727;53.132;8.230;2023-09-08T07:52:50;12.85;;;7.03;;
80400;SDS011;69727;53.132;8.230;2023-09-08T07:55:16;11.18;;;7.00;;
80400;SDS011;69727;53.132;8.230;2023-09-08T07:57:42;13.77;;;6.93;;
80400;SDS011;69727;53.132;8.230;2023-09-08T08:00:08;13.13;;;7.43;;
80400;SDS011;69727;53.132;8.230;2023-09-08T08:02:37;10.20;;;6.55;;
80400;SDS011;69727;53.132;8.230;2023-09-08T08:05:06;8.18;;;5.72;;
80400;SDS011;69727;53.132;8.230;2023-09-08T08:07:32;10.68;;;6.72;;
80400;SDS011;69727;53.132;8.230;2023-09-08T08:09:58;11.48;;;6.45;;
80400;SDS011;69727;53.132;8.230;2023-09-08T08:12:23;10.90;;;6.40;;
80400;SDS011;69727;53.132;8.230;2023-09-08T08:14:48;9.83;;;5.93;;
80400;SDS011;69727;53.132;8.230;2023-09-08T08:17:14;11.67;;;6.37;;
80400;SDS011;69727;53.132;8.230;2023-09-08T08:19:42;10.43;;;6.55;;
80400;SDS011;69727;53.132;8.230;2023-09-08T08:22:07;8.32;;;5.75;;
80400;SDS011;69727;53.132;8.230;2023-09-08T08:24:33;10.32;;;6.28;;
80400;SDS011;69727;53.132;8.230;2023-09-08T08:26:58;10.53;;;6.50;;
80400;SDS011;69727;53.132;8.230;2023-09-08T08:29:23;9.33;;;5.20;;
80400;SDS011;69727;53.132;8.230;2023-09-08T08:31:49;8.88;;;6.00;;
80400;SDS011;69727;53.132;8.230;2023-09-08T08:34:14;9.27;;;5.97;;
80400;SDS011;69727;53.132;8.230;2023-09-08T08:36:39;9.15;;;6.05;;
80400;SDS011;69727;53.132;8.230;2023-09-08T08:39:05;11.87;;;6.00;;
80400;SDS011;69727;53.132;8.230;2023-09-08T08:41:30;9.67;;;5.60;;
80400;SDS011;69727;53.132;8.230;2023-09-08T08:43:56;9.63;;;5.53;;
80400;SDS011;69727;53.132;8.230;2023-09-08T08:46:22;8.73;;;5.93;;
80400;SDS011;69727;53.132;8.230;2023-09-08T08:48:48;9.05;;;5.85;;
80400;SDS011;69727;53.132;8.230;2023-09-08T08:51:15;11.02;;;6.20;;
80400;SDS011;69727;53.132;8.230;2023-09-08T08:56:08;8.93;;;5.37;;
80400;SDS011;69727;53.132;8.230;2023-09-08T08:58:36;11.52;;;6.50;;
80400;SDS011;69727;53.132;8.230;2023-09-08T09:01:04;10.82;;;5.43;;
80400;SDS011;69727;53.132;8.230;2023-09-08T09:03:30;8.35;;;5.35;;
80400;SDS011;69727;53.132;8.230;2023-09-08T09:05:56;9.30;;;5.35;;
80400;SDS011;69727;53.132;8.230;2023-09-08T09:08:21;9.48;;;5.30;;
80400;SDS011;69727;53.132;8.230;2023-09-08T09:10:49;9.13;;;4.63;;
80400;SDS011;69727;53.132;8.230;2023-09-08T09:13:15;7.63;;;5.22;;
80400;SDS011;69727;53.132;8.230;2023-09-08T09:15:41;8.43;;;4.60;;
80400;SDS011;69727;53.132;8.230;2023-09-08T09:18:09;11.93;;;5.63;;
80400;SDS011;69727;53.132;8.230;2023-09-08T09:20:34;10.57;;;5.53;;
80400;SDS011;69727;53.132;8.230;2023-09-08T09:23:00;8.45;;;5.45;;
80400;SDS011;69727;53.132;8.230;2023-09-08T09:25:28;9.10;;;5.20;;
80400;SDS011;69727;53.132;8.230;2023-09-08T09:27:55;8.60;;;5.68;;
80400;SDS011;69727;53.132;8.230;2023-09-08T09:30:25;8.50;;;5.20;;
80400;SDS011;69727;53.132;8.230;2023-09-08T09:33:01;9.10;;;5.53;;
80400;SDS011;69727;53.132;8.230;2023-09-08T09:35:44;9.48;;;5.72;;
80400;SDS011;69727;53.132;8.230;2023-09-08T09:38:10;10.32;;;5.25;;
80400;SDS011;69727;53.132;8.230;2023-09-08T09:40:36;8.73;;;5.35;;
80400;SDS011;69727;53.132;8.230;2023-09-08T09:43:02;10.27;;;5.38;;
80400;SDS011;69727;53.132;8.230;2023-09-08T09:45:30;7.50;;;5.13;;
80400;SDS011;69727;53.132;8.230;2023-09-08T09:47:56;7.30;;;4.90;;
80400;SDS011;69727;53.132;8.230;2023-09-08T09:50:31;9.02;;;5.43;;
80400;SDS011;69727;53.132;8.230;2023-09-08T09:52:59;8.77;;;5.68;;
80400;SDS011;69727;53.132;8.230;2023-09-08T09:55:26;8.65;;;4.95;;
80400;SDS011;69727;53.132;8.230;2023-09-08T09:57:56;16.95;;;7.15;;
80400;SDS011;69727;53.132;8.230;2023-09-08T10:00:25;9.45;;;5.15;;
80400;SDS011;69727;53.132;8.230;2023-09-08T10:02:51;12.85;;;6.70;;
80400;SDS011;69727;53.132;8.230;2023-09-08T10:05:18;10.15;;;5.50;;
80400;SDS011;69727;53.132;8.230;2023-09-08T10:07:43;8.13;;;5.55;;
80400;SDS011;69727;53.132;8.230;2023-09-08T10:10:12;9.43;;;5.15;;
80400;SDS011;69727;53.132;8.230;2023-09-08T10:12:38;7.32;;;5.05;;
80400;SDS011;69727;53.132;8.230;2023-09-08T10:15:04;8.80;;;5.30;;
80400;SDS011;69727;53.132;8.230;2023-09-08T10:17:31;9.40;;;5.43;;
80400;SDS011;69727;53.132;8.230;2023-09-08T10:20:00;9.05;;;5.30;;
80400;SDS011;69727;53.132;8.230;2023-09-08T10:22:33;9.98;;;5.43;;
80400;SDS011;69727;53.132;8.230;2023-09-08T10:24:59;11.05;;;5.47;;
80400;SDS011;69727;53.132;8.230;2023-09-08T10:27:29;9.48;;;5.35;;
80400;SDS011;69727;53.132;8.230;2023-09-08T10:29:56;9.50;;;5.25;;
80400;SDS011;69727;53.132;8.230;2023-09-08T10:32:22;10.75;;;5.63;;
80400;SDS011;69727;53.132;8.230;2023-09-08T10:34:47;7.55;;;4.78;;
80400;SDS011;69727;53.132;8.230;2023-09-08T10:37:21;9.50;;;4.63;;
80400;SDS011;69727;53.132;8.230;2023-09-08T10:39:49;7.68;;;4.80;;
80400;SDS011;69727;53.132;8.230;2023-09-08T10:44:44;9.18;;;5.00;;
80400;SDS011;69727;53.132;8.230;2023-09-08T10:47:26;8.38;;;5.20;;
80400;SDS011;69727;53.132;8.230;2023-09-08T10:49:56;7.70;;;4.93;;
80400;SDS011;69727;53.132;8.230;2023-09-08T10:52:23;9.38;;;5.32;;
80400;SDS011;69727;53.132;8.230;2023-09-08T10:54:50;7.10;;;4.85;;
80400;SDS011;69727;53.132;8.230;2023-09-08T10:57:17;7.75;;;4.97;;
80400;SDS011;69727;53.132;8.230;2023-09-08T10:59:54;9.15;;;5.00;;
80400;SDS011;69727;53.132;8.230;2023-09-08T11:02:40;7.38;;;4.95;;
80400;SDS011;69727;53.132;8.230;2023-09-08T11:05:13;7.25;;;4.50;;
80400;SDS011;69727;53.132;8.230;2023-09-08T11:07:40;8.93;;;4.70;;
80400;SDS011;69727;53.132;8.230;2023-09-08T11:10:10;7.10;;;4.38;;
80400;SDS011;69727;53.132;8.230;2023-09-08T11:12:36;7.38;;;4.63;;
80400;SDS011;69727;53.132;8.230;2023-09-08T11:15:03;8.60;;;4.07;;
80400;SDS011;69727;53.132;8.230;2023-09-08T11:17:32;7.25;;;4.35;;
80400;SDS011;69727;53.132;8.230;2023-09-08T11:19:59;7.50;;;4.78;;
80400;SDS011;69727;53.132;8.230;2023-09-08T11:22:32;6.18;;;3.95;;
80400;SDS011;69727;53.132;8.230;2023-09-08T11:24:59;7.30;;;4.60;;
80400;SDS011;69727;53.132;8.230;2023-09-08T11:27:29;7.97;;;4.20;;
80400;SDS011;69727;53.132;8.230;2023-09-08T11:29:55;5.93;;;4.13;;
80400;SDS011;69727;53.132;8.230;2023-09-08T11:32:22;8.13;;;4.28;;
80400;SDS011;69727;53.132;8.230;2023-09-08T11:34:47;6.43;;;4.18;;
80400;SDS011;69727;53.132;8.230;2023-09-08T11:37:14;7.43;;;4.25;;
80400;SDS011;69727;53.132;8.230;2023-09-08T11:39:41;7.70;;;4.32;;
80400;SDS011;69727;53.132;8.230;2023-09-08T11:42:08;6.28;;;3.78;;
80400;SDS011;69727;53.132;8.230;2023-09-08T11:44:35;8.15;;;4.28;;
80400;SDS011;69727;53.132;8.230;2023-09-08T11:47:01;7.50;;;4.45;;
80400;SDS011;69727;53.132;8.230;2023-09-08T11:49:33;10.55;;;4.13;;
80400;SDS011;69727;53.132;8.230;2023-09-08T11:51:59;7.07;;;4.03;;
80400;SDS011;69727;53.132;8.230;2023-09-08T11:54:29;6.85;;;4.03;;
80400;SDS011;69727;53.132;8.230;2023-09-08T11:57:17;7.15;;;4.28;;
80400;SDS011;69727;53.132;8.230;2023-09-08T12:00:03;6.63;;;3.75;;
80400;SDS011;69727;53.132;8.230;2023-09-08T12:02:44;5.97;;;3.60;;
80400;SDS011;69727;53.132;8.230;2023-09-08T12:05:23;6.38;;;4.07;;
80400;SDS011;69727;53.132;8.230;2023-09-08T12:07:55;7.18;;;3.90;;
80400;SDS011;69727;53.132;8.230;2023-09-08T12:10:24;6.05;;;3.58;;
80400;SDS011;69727;53.132;8.230;2023-09-08T12:12:52;7.53;;;3.80;;
80400;SDS011;69727;53.132;8.230;2023-09-08T12:18:02;7.00;;;3.90;;
80400;SDS011;69727;53.132;8.230;2023-09-08T12:20:32;5.30;;;3.17;;
80400;SDS011;69727;53.132;8.230;2023-09-08T12:23:01;5.75;;;3.50;;
80400;SDS011;69727;53.132;8.230;2023-09-08T12:25:49;6.18;;;3.53;;
80400;SDS011;69727;53.132;8.230;2023-09-08T12:28:17;7.35;;;3.85;;
80400;SDS011;69727;53.132;8.230;2023-09-08T12:30:43;7.68;;;3.80;;
80400;SDS011;69727;53.132;8.230;2023-09-08T12:33:08;7.10;;;3.38;;
80400;SDS011;69727;53.132;8.230;2023-09-08T12:35:35;6.35;;;4.10;;
80400;SDS011;69727;53.132;8.230;2023-09-08T12:38:01;5.43;;;3.45;;
80400;SDS011;69727;53.132;8.230;2023-09-08T12:40:29;7.38;;;4.38;;
80400;SDS011;69727;53.132;8.230;2023-09-08T12:42:55;6.63;;;3.50;;
80400;SDS011;69727;53.132;8.230;2023-09-08T12:45:23;5.78;;;3.38;;
80400;SDS011;69727;53.132;8.230;2023-09-08T12:47:50;8.57;;;3.35;;
80400;SDS011;69727;53.132;8.230;2023-09-08T12:50:15;7.35;;;3.45;;
80400;SDS011;69727;53.132;8.230;2023-09-08T12:52:41;7.30;;;3.28;;
80400;SDS011;69727;53.132;8.230;2023-09-08T12:55:10;6.70;;;3.50;;
80400;SDS011;69727;53.132;8.230;2023-09-08T12:57:35;7.40;;;3.58;;
80400;SDS011;69727;53.132;8.230;2023-09-08T13:00:02;8.00;;;3.67;;
80400;SDS011;69727;53.132;8.230;2023-09-08T13:02:28;6.47;;;3.67;;
80400;SDS011;69727;53.132;8.230;2023-09-08T13:04:53;7.72;;;3.63;;
80400;SDS011;69727;53.132;8.230;2023-09-08T13:07:20;6.13;;;3.67;;
80400;SDS011;69727;53.132;8.230;2023-09-08T13:09:45;8.68;;;4.10;;
80400;SDS011;69727;53.132;8.230;2023-09-08T13:12:11;6.40;;;3.40;;
80400;SDS011;69727;53.132;8.230;2023-09-08T13:14:38;4.95;;;3.25;;
80400;SDS011;69727;53.132;8.230;2023-09-08T13:17:04;6.05;;;3.55;;
80400;SDS011;69727;53.132;8.230;2023-09-08T13:19:29;6.13;;;3.25;;
80400;SDS011;69727;53.132;8.230;2023-09-08T13:21:55;9.35;;;3.42;;
80400;SDS011;69727;53.132;8.230;2023-09-08T13:24:21;6.88;;;3.47;;
80400;SDS011;69727;53.132;8.230;2023-09-08T13:26:47;8.32;;;3.90;;
80400;SDS011;69727;53.132;8.230;2023-09-08T13:29:12;5.70;;;3.75;;
80400;SDS011;69727;53.132;8.230;2023-09-08T13:31:38;6.15;;;4.00;;
80400;SDS011;69727;53.132;8.230;2023-09-08T13:34:03;8.77;;;3.60;;
80400;SDS011;69727;53.132;8.230;2023-09-08T13:36:28;5.93;;;3.35;;
80400;SDS011;69727;53.132;8.230;2023-09-08T13:38:54;5.70;;;3.20;;
80400;SDS011;69727;53.132;8.230;2023-09-08T13:41:19;4.75;;;3.22;;
80400;SDS011;69727;53.132;8.230;2023-09-08T13:43:45;6.43;;;3.53;;
80400;SDS011;69727;53.132;8.230;2023-09-08T13:46:10;7.30;;;3.40;;
80400;SDS011;69727;53.132;8.230;2023-09-08T13:48:35;5.73;;;3.50;;
80400;SDS011;69727;53.132;8.230;2023-09-08T13:51:03;5.80;;;3.90;;
80400;SDS011;69727;53.132;8.230;2023-09-08T13:53:29;5.55;;;3.28;;
80400;SDS011;69727;53.132;8.230;2023-09-08T13:55:58;6.22;;;3.42;;
80400;SDS011;69727;53.132;8.230;2023-09-08T13:58:24;7.43;;;3.40;;
80400;SDS011;69727;53.132;8.230;2023-09-08T14:00:49;6.57;;;3.70;;
80400;SDS011;69727;53.132;8.230;2023-09-08T14:03:16;5.78;;;3.50;;
80400;SDS011;69727;53.132;8.230;2023-09-08T14:05:42;6.53;;;3.85;;
80400;SDS011;69727;53.132;8.230;2023-09-08T14:08:07;6.88;;;3.70;;
80400;SDS011;69727;53.132;8.230;2023-09-08T14:10:33;5.60;;;3.40;;
80400;SDS011;69727;53.132;8.230;2023-09-08T14:12:58;7.70;;;3.28;;
80400;SDS011;69727;53.132;8.230;2023-09-08T14:15:23;6.97;;;3.00;;
80400;SDS011;69727;53.132;8.230;2023-09-08T14:17:49;5.55;;;3.65;;
80400;SDS011;69727;53.132;8.230;2023-09-08T14:20:14;5.47;;;3.67;;
80400;SDS011;69727;53.132;8.230;2023-09-08T14:22:40;5.63;;;3.38;;
80400;SDS011;69727;53.132;8.230;2023-09-08T14:25:05;6.60;;;3.70;;
80400;SDS011;69727;53.132;8.230;2023-09-08T14:27:31;5.93;;;3.63;;
80400;SDS011;69727;53.132;8.230;2023-09-08T14:29:56;5.80;;;3.40;;
80400;SDS011;69727;53.132;8.230;2023-09-08T14:32:22;6.30;;;3.35;;
80400;SDS011;69727;53.132;8.230;2023-09-08T14:34:48;6.10;;;3.20;;
80400;SDS011;69727;53.132;8.230;2023-09-08T14:37:13;5.15;;;3.28;;
80400;SDS011;69727;53.132;8.230;2023-09-08T14:39:39;7.70;;;3.83;;
80400;SDS011;69727;53.132;8.230;2023-09-08T14:42:04;5.20;;;3.73;;
80400;SDS011;69727;53.132;8.230;2023-09-08T14:44:30;6.03;;;3.30;;
80400;SDS011;69727;53.132;8.230;2023-09-08T14:46:55;6.90;;;3.40;;
80400;SDS011;69727;53.132;8.230;2023-09-08T14:49:21;7.53;;;3.93;;
80400;SDS011;69727;53.132;8.230;2023-09-08T14:51:46;6.13;;;3.30;;
80400;SDS011;69727;53.132;8.230;2023-09-08T14:54:12;5.43;;;3.20;;
80400;SDS011;69727;53.132;8.230;2023-09-08T14:56:37;6.95;;;3.78;;